sensor_id;sensor_type;location;lat;lon;timestamp;P1;durP1;ratioP1;P2;durP2;ratioP2
81901;SDS011;71369;50.796;3.290;2023-07-31T00:00:12;19.45;;;5.18;;
81901;SDS011;71369;50.796;3.290;2023-07-31T00:02:38;14.60;;;4.60;;
81901;SDS011;71369;50.796;3.290;2023-07-31T00:05:04;15.32;;;5.57;;
81901;SDS011;71369;50.796;3.290;2023-07-31T00:07:31;12.88;;;5.30;;
81901;SDS011;71369;50.796;3.290;2023-07-31T00:09:57;13.55;;;4.68;;
81901;SDS011;71369;50.796;3.290;2023-07-31T00:12:23;12.25;;;4.20;;
81901;SDS011;71369;50.796;3.290;2023-07-31T00:14:49;14.30;;;4.47;;
81901;SDS011;71369;50.796;3.290;2023-07-31T00:17:14;16.42;;;5.15;;
81901;SDS011;71369;50.796;3.290;2023-07-31T00:19:42;13.63;;;4.70;;
81901;SDS011;71369;50.796;3.290;2023-07-31T00:22:07;13.88;;;4.43;;
81901;SDS011;71369;50.796;3.290;2023-07-31T00:24:33;11.48;;;4.60;;
81901;SDS011;71369;50.796;3.290;2023-07-31T00:26:58;11.77;;;4.25;;
81901;SDS011;71369;50.796;3.290;2023-07-31T00:29:24;11.65;;;4.82;;
81901;SDS011;71369;50.796;3.290;2023-07-31T00:31:50;14.95;;;4.35;;
81901;SDS011;71369;50.796;3.290;2023-07-31T00:34:15;11.73;;;4.25;;
81901;SDS011;71369;50.796;3.290;2023-07-31T00:36:41;15.90;;;4.70;;
81901;SDS011;71369;50.796;3.290;2023-07-31T00:39:06;14.70;;;4.35;;
81901;SDS011;71369;50.796;3.290;2023-07-31T00:41:32;13.05;;;4.55;;
81901;SDS011;71369;50.796;3.290;2023-07-31T00:43:58;17.48;;;4.75;;
81901;SDS011;71369;50.796;3.290;2023-07-31T00:46:24;11.02;;;3.88;;
81901;SDS011;71369;50.796;3.290;2023-07-31T00:48:49;12.52;;;3.97;;
81901;SDS011;71369;50.796;3.290;2023-07-31T00:51:15;10.60;;;3.80;;
81901;SDS011;71369;50.796;3.290;2023-07-31T00:53:41;13.38;;;4.28;;
81901;SDS011;71369;50.796;3.290;2023-07-31T00:56:08;9.70;;;3.80;;
81901;SDS011;71369;50.796;3.290;2023-07-31T00:58:36;14.68;;;4.38;;
81901;SDS011;71369;50.796;3.290;2023-07-31T01:01:01;14.93;;;4.18;;
81901;SDS011;71369;50.796;3.290;2023-07-31T01:03:27;17.02;;;5.22;;
81901;SDS011;71369;50.796;3.290;2023-07-31T01:06:00;15.82;;;4.22;;
81901;SDS011;71369;50.796;3.290;2023-07-31T01:11:21;14.43;;;4.35;;
81901;SDS011;71369;50.796;3.290;2023-07-31T01:13:55;11.57;;;4.97;;
81901;SDS011;71369;50.796;3.290;2023-07-31T01:16:21;13.77;;;4.13;;
81901;SDS011;71369;50.796;3.290;2023-07-31T01:18:47;11.40;;;4.53;;
81901;SDS011;71369;50.796;3.290;2023-07-31T01:29:38;13.65;;;4.35;;
81901;SDS011;71369;50.796;3.290;2023-07-31T01:32:16;18.40;;;5.03;;
81901;SDS011;71369;50.796;3.290;2023-07-31T01:34:44;15.68;;;4.65;;
81901;SDS011;71369;50.796;3.290;2023-07-31T01:37:11;14.05;;;4.88;;
81901;SDS011;71369;50.796;3.290;2023-07-31T01:39:37;15.13;;;4.55;;
81901;SDS011;71369;50.796;3.290;2023-07-31T01:42:03;14.25;;;4.40;;
81901;SDS011;71369;50.796;3.290;2023-07-31T01:44:28;14.55;;;4.70;;
81901;SDS011;71369;50.796;3.290;2023-07-31T01:46:54;13.73;;;4.93;;
81901;SDS011;71369;50.796;3.290;2023-07-31T01:49:20;13.95;;;5.10;;
81901;SDS011;71369;50.796;3.290;2023-07-31T01:51:46;16.65;;;5.20;;
81901;SDS011;71369;50.796;3.290;2023-07-31T01:54:11;9.73;;;3.70;;
81901;SDS011;71369;50.796;3.290;2023-07-31T01:56:37;11.25;;;4.63;;
81901;SDS011;71369;50.796;3.290;2023-07-31T01:59:03;16.48;;;4.60;;
81901;SDS011;71369;50.796;3.290;2023-07-31T02:01:28;17.83;;;5.55;;
81901;SDS011;71369;50.796;3.290;2023-07-31T02:03:54;15.27;;;4.88;;
81901;SDS011;71369;50.796;3.290;2023-07-31T02:06:20;17.45;;;4.25;;
81901;SDS011;71369;50.796;3.290;2023-07-31T02:08:45;13.45;;;4.20;;
81901;SDS011;71369;50.796;3.290;2023-07-31T02:11:11;13.50;;;5.18;;
81901;SDS011;71369;50.796;3.290;2023-07-31T02:13:37;17.02;;;5.03;;
81901;SDS011;71369;50.796;3.290;2023-07-31T02:16:03;9.85;;;4.05;;
81901;SDS011;71369;50.796;3.290;2023-07-31T02:18:28;12.70;;;4.85;;
81901;SDS011;71369;50.796;3.290;2023-07-31T02:20:54;15.68;;;5.13;;
81901;SDS011;71369;50.796;3.290;2023-07-31T02:23:20;12.43;;;4.18;;
81901;SDS011;71369;50.796;3.290;2023-07-31T02:25:46;12.75;;;5.13;;
81901;SDS011;71369;50.796;3.290;2023-07-31T02:28:12;14.25;;;4.75;;
81901;SDS011;71369;50.796;3.290;2023-07-31T02:30:38;12.88;;;4.78;;
81901;SDS011;71369;50.796;3.290;2023-07-31T02:33:04;13.43;;;4.50;;
81901;SDS011;71369;50.796;3.290;2023-07-31T02:35:30;15.15;;;4.80;;
81901;SDS011;71369;50.796;3.290;2023-07-31T02:37:56;11.55;;;5.40;;
81901;SDS011;71369;50.796;3.290;2023-07-31T02:40:21;11.63;;;5.63;;
81901;SDS011;71369;50.796;3.290;2023-07-31T02:42:48;12.05;;;4.65;;
81901;SDS011;71369;50.796;3.290;2023-07-31T02:45:14;16.20;;;5.78;;
81901;SDS011;71369;50.796;3.290;2023-07-31T02:47:39;19.73;;;5.72;;
81901;SDS011;71369;50.796;3.290;2023-07-31T02:50:05;17.95;;;5.97;;
81901;SDS011;71369;50.796;3.290;2023-07-31T02:52:31;17.63;;;5.75;;
81901;SDS011;71369;50.796;3.290;2023-07-31T02:54:57;13.60;;;5.53;;
81901;SDS011;71369;50.796;3.290;2023-07-31T02:57:23;15.50;;;5.63;;
81901;SDS011;71369;50.796;3.290;2023-07-31T02:59:49;17.52;;;6.03;;
81901;SDS011;71369;50.796;3.290;2023-07-31T03:02:15;17.83;;;6.20;;
81901;SDS011;71369;50.796;3.290;2023-07-31T03:04:40;16.80;;;6.20;;
81901;SDS011;71369;50.796;3.290;2023-07-31T03:07:06;16.02;;;5.93;;
81901;SDS011;71369;50.796;3.290;2023-07-31T03:09:32;16.13;;;5.45;;
81901;SDS011;71369;50.796;3.290;2023-07-31T03:11:58;17.23;;;6.28;;
81901;SDS011;71369;50.796;3.290;2023-07-31T03:14:23;16.77;;;5.47;;
81901;SDS011;71369;50.796;3.290;2023-07-31T03:16:51;12.75;;;5.28;;
81901;SDS011;71369;50.796;3.290;2023-07-31T03:19:17;14.18;;;5.22;;
81901;SDS011;71369;50.796;3.290;2023-07-31T03:21:43;15.27;;;4.97;;
81901;SDS011;71369;50.796;3.290;2023-07-31T03:24:08;11.35;;;4.97;;
81901;SDS011;71369;50.796;3.290;2023-07-31T03:26:34;11.63;;;4.60;;
81901;SDS011;71369;50.796;3.290;2023-07-31T03:29:01;11.75;;;4.88;;
81901;SDS011;71369;50.796;3.290;2023-07-31T03:31:27;9.23;;;3.88;;
81901;SDS011;71369;50.796;3.290;2023-07-31T03:33:53;8.95;;;4.95;;
81901;SDS011;71369;50.796;3.290;2023-07-31T03:36:18;8.80;;;4.13;;
81901;SDS011;71369;50.796;3.290;2023-07-31T03:38:44;10.40;;;4.97;;
81901;SDS011;71369;50.796;3.290;2023-07-31T03:41:11;10.52;;;4.10;;
81901;SDS011;71369;50.796;3.290;2023-07-31T03:43:36;7.85;;;4.07;;
81901;SDS011;71369;50.796;3.290;2023-07-31T03:46:02;12.50;;;4.40;;
81901;SDS011;71369;50.796;3.290;2023-07-31T03:48:28;12.63;;;4.85;;
81901;SDS011;71369;50.796;3.290;2023-07-31T03:50:54;16.75;;;5.50;;
81901;SDS011;71369;50.796;3.290;2023-07-31T03:53:20;12.65;;;5.30;;
81901;SDS011;71369;50.796;3.290;2023-07-31T03:55:45;12.35;;;5.38;;
81901;SDS011;71369;50.796;3.290;2023-07-31T03:58:11;12.23;;;5.68;;
81901;SDS011;71369;50.796;3.290;2023-07-31T04:00:37;9.20;;;4.88;;
81901;SDS011;71369;50.796;3.290;2023-07-31T04:03:03;10.38;;;5.15;;
81901;SDS011;71369;50.796;3.290;2023-07-31T04:05:31;9.27;;;5.20;;
81901;SDS011;71369;50.796;3.290;2023-07-31T04:07:57;15.10;;;5.18;;
81901;SDS011;71369;50.796;3.290;2023-07-31T04:10:23;12.45;;;6.20;;
81901;SDS011;71369;50.796;3.290;2023-07-31T04:12:49;12.25;;;5.32;;
81901;SDS011;71369;50.796;3.290;2023-07-31T04:15:14;11.07;;;5.57;;
81901;SDS011;71369;50.796;3.290;2023-07-31T04:17:40;15.30;;;5.60;;
81901;SDS011;71369;50.796;3.290;2023-07-31T04:20:06;11.93;;;5.13;;
81901;SDS011;71369;50.796;3.290;2023-07-31T04:22:32;12.65;;;5.57;;
81901;SDS011;71369;50.796;3.290;2023-07-31T04:24:58;13.43;;;5.95;;
81901;SDS011;71369;50.796;3.290;2023-07-31T04:27:24;9.48;;;5.03;;
81901;SDS011;71369;50.796;3.290;2023-07-31T04:29:50;14.23;;;5.90;;
81901;SDS011;71369;50.796;3.290;2023-07-31T04:32:16;13.35;;;5.47;;
81901;SDS011;71369;50.796;3.290;2023-07-31T04:34:42;7.97;;;4.32;;
81901;SDS011;71369;50.796;3.290;2023-07-31T04:37:08;12.02;;;4.85;;
81901;SDS011;71369;50.796;3.290;2023-07-31T04:39:34;12.45;;;5.53;;
81901;SDS011;71369;50.796;3.290;2023-07-31T04:42:00;11.25;;;4.88;;
81901;SDS011;71369;50.796;3.290;2023-07-31T04:44:25;9.32;;;4.97;;
81901;SDS011;71369;50.796;3.290;2023-07-31T04:46:51;10.73;;;5.55;;
81901;SDS011;71369;50.796;3.290;2023-07-31T04:49:17;12.60;;;5.25;;
81901;SDS011;71369;50.796;3.290;2023-07-31T04:51:44;9.68;;;4.57;;
81901;SDS011;71369;50.796;3.290;2023-07-31T04:54:10;8.07;;;4.35;;
81901;SDS011;71369;50.796;3.290;2023-07-31T04:56:37;12.25;;;5.28;;
81901;SDS011;71369;50.796;3.290;2023-07-31T04:59:03;12.38;;;4.90;;
81901;SDS011;71369;50.796;3.290;2023-07-31T05:01:29;9.57;;;4.30;;
81901;SDS011;71369;50.796;3.290;2023-07-31T05:03:55;11.82;;;5.20;;
81901;SDS011;71369;50.796;3.290;2023-07-31T05:06:20;6.60;;;4.05;;
81901;SDS011;71369;50.796;3.290;2023-07-31T05:08:47;12.38;;;4.38;;
81901;SDS011;71369;50.796;3.290;2023-07-31T05:11:13;10.68;;;4.30;;
81901;SDS011;71369;50.796;3.290;2023-07-31T05:13:38;9.63;;;4.38;;
81901;SDS011;71369;50.796;3.290;2023-07-31T05:16:04;9.73;;;4.78;;
81901;SDS011;71369;50.796;3.290;2023-07-31T05:18:30;8.80;;;3.92;;
81901;SDS011;71369;50.796;3.290;2023-07-31T05:20:56;8.65;;;4.15;;
81901;SDS011;71369;50.796;3.290;2023-07-31T05:23:21;9.30;;;4.18;;
81901;SDS011;71369;50.796;3.290;2023-07-31T05:25:47;11.05;;;4.50;;
81901;SDS011;71369;50.796;3.290;2023-07-31T05:28:13;11.55;;;4.53;;
81901;SDS011;71369;50.796;3.290;2023-07-31T05:30:38;7.10;;;4.00;;
81901;SDS011;71369;50.796;3.290;2023-07-31T05:33:04;10.07;;;3.97;;
81901;SDS011;71369;50.796;3.290;2023-07-31T05:35:30;7.18;;;4.15;;
81901;SDS011;71369;50.796;3.290;2023-07-31T05:37:56;8.30;;;3.90;;
81901;SDS011;71369;50.796;3.290;2023-07-31T05:40:21;9.98;;;3.63;;
81901;SDS011;71369;50.796;3.290;2023-07-31T05:42:47;10.05;;;3.95;;
81901;SDS011;71369;50.796;3.290;2023-07-31T05:45:13;8.75;;;4.22;;
81901;SDS011;71369;50.796;3.290;2023-07-31T05:47:39;8.27;;;3.85;;
81901;SDS011;71369;50.796;3.290;2023-07-31T05:50:05;15.27;;;4.55;;
81901;SDS011;71369;50.796;3.290;2023-07-31T05:52:31;11.80;;;3.85;;
81901;SDS011;71369;50.796;3.290;2023-07-31T05:54:56;6.00;;;3.50;;
81901;SDS011;71369;50.796;3.290;2023-07-31T05:57:22;11.18;;;3.95;;
81901;SDS011;71369;50.796;3.290;2023-07-31T05:59:48;13.55;;;4.30;;
81901;SDS011;71369;50.796;3.290;2023-07-31T06:02:14;12.57;;;4.78;;
81901;SDS011;71369;50.796;3.290;2023-07-31T06:04:40;7.47;;;3.67;;
81901;SDS011;71369;50.796;3.290;2023-07-31T06:07:05;8.63;;;3.72;;
81901;SDS011;71369;50.796;3.290;2023-07-31T06:09:31;9.23;;;4.10;;
81901;SDS011;71369;50.796;3.290;2023-07-31T06:11:57;10.52;;;4.65;;
81901;SDS011;71369;50.796;3.290;2023-07-31T06:14:23;8.95;;;3.67;;
81901;SDS011;71369;50.796;3.290;2023-07-31T06:16:48;13.05;;;4.65;;
81901;SDS011;71369;50.796;3.290;2023-07-31T06:19:14;11.20;;;4.20;;
81901;SDS011;71369;50.796;3.290;2023-07-31T06:21:40;6.63;;;3.90;;
81901;SDS011;71369;50.796;3.290;2023-07-31T06:24:08;10.45;;;4.00;;
81901;SDS011;71369;50.796;3.290;2023-07-31T06:26:34;10.18;;;3.85;;
81901;SDS011;71369;50.796;3.290;2023-07-31T06:28:59;7.40;;;3.42;;
81901;SDS011;71369;50.796;3.290;2023-07-31T06:31:25;8.80;;;3.75;;
81901;SDS011;71369;50.796;3.290;2023-07-31T06:33:51;8.15;;;3.47;;
81901;SDS011;71369;50.796;3.290;2023-07-31T06:36:17;8.85;;;3.50;;
81901;SDS011;71369;50.796;3.290;2023-07-31T06:38:43;11.70;;;3.60;;
81901;SDS011;71369;50.796;3.290;2023-07-31T06:41:09;10.73;;;3.55;;
81901;SDS011;71369;50.796;3.290;2023-07-31T06:43:35;10.77;;;3.97;;
81901;SDS011;71369;50.796;3.290;2023-07-31T06:46:05;7.30;;;3.53;;
81901;SDS011;71369;50.796;3.290;2023-07-31T06:48:34;8.75;;;3.55;;
81901;SDS011;71369;50.796;3.290;2023-07-31T06:51:02;7.43;;;3.28;;
81901;SDS011;71369;50.796;3.290;2023-07-31T06:53:28;6.47;;;3.00;;
81901;SDS011;71369;50.796;3.290;2023-07-31T06:55:54;7.68;;;3.20;;
81901;SDS011;71369;50.796;3.290;2023-07-31T06:58:20;6.22;;;3.58;;
81901;SDS011;71369;50.796;3.290;2023-07-31T07:00:46;6.47;;;3.03;;
81901;SDS011;71369;50.796;3.290;2023-07-31T07:03:14;8.73;;;3.25;;
81901;SDS011;71369;50.796;3.290;2023-07-31T07:05:40;9.85;;;3.25;;
81901;SDS011;71369;50.796;3.290;2023-07-31T07:08:05;6.00;;;2.95;;
81901;SDS011;71369;50.796;3.290;2023-07-31T07:10:31;6.50;;;3.25;;
81901;SDS011;71369;50.796;3.290;2023-07-31T07:12:57;6.75;;;3.00;;
81901;SDS011;71369;50.796;3.290;2023-07-31T07:15:22;7.13;;;3.35;;
81901;SDS011;71369;50.796;3.290;2023-07-31T07:17:48;7.78;;;3.45;;
81901;SDS011;71369;50.796;3.290;2023-07-31T07:20:14;6.18;;;3.00;;
81901;SDS011;71369;50.796;3.290;2023-07-31T07:22:40;5.95;;;3.17;;
81901;SDS011;71369;50.796;3.290;2023-07-31T07:25:08;4.88;;;2.75;;
81901;SDS011;71369;50.796;3.290;2023-07-31T07:27:36;6.38;;;3.08;;
81901;SDS011;71369;50.796;3.290;2023-07-31T07:30:02;5.55;;;2.85;;
81901;SDS011;71369;50.796;3.290;2023-07-31T07:32:28;5.00;;;2.67;;
81901;SDS011;71369;50.796;3.290;2023-07-31T07:34:55;6.00;;;2.83;;
81901;SDS011;71369;50.796;3.290;2023-07-31T07:37:21;5.45;;;2.80;;
81901;SDS011;71369;50.796;3.290;2023-07-31T07:39:47;3.50;;;2.30;;
81901;SDS011;71369;50.796;3.290;2023-07-31T07:42:12;5.47;;;2.38;;
81901;SDS011;71369;50.796;3.290;2023-07-31T07:44:38;5.40;;;3.10;;
81901;SDS011;71369;50.796;3.290;2023-07-31T07:47:04;5.40;;;2.55;;
81901;SDS011;71369;50.796;3.290;2023-07-31T07:49:32;5.57;;;2.53;;
81901;SDS011;71369;50.796;3.290;2023-07-31T07:51:58;6.07;;;2.80;;
81901;SDS011;71369;50.796;3.290;2023-07-31T07:54:24;4.93;;;2.70;;
81901;SDS011;71369;50.796;3.290;2023-07-31T07:56:50;4.32;;;2.45;;
81901;SDS011;71369;50.796;3.290;2023-07-31T07:59:15;6.43;;;2.60;;
81901;SDS011;71369;50.796;3.290;2023-07-31T08:01:41;5.70;;;2.88;;
81901;SDS011;71369;50.796;3.290;2023-07-31T08:04:07;6.32;;;2.92;;
81901;SDS011;71369;50.796;3.290;2023-07-31T08:06:32;6.22;;;2.70;;
81901;SDS011;71369;50.796;3.290;2023-07-31T08:08:58;5.72;;;2.70;;
81901;SDS011;71369;50.796;3.290;2023-07-31T08:11:24;7.60;;;2.80;;
81901;SDS011;71369;50.796;3.290;2023-07-31T08:13:50;6.60;;;2.95;;
81901;SDS011;71369;50.796;3.290;2023-07-31T08:16:16;6.47;;;3.47;;
81901;SDS011;71369;50.796;3.290;2023-07-31T08:18:42;5.95;;;3.17;;
81901;SDS011;71369;50.796;3.290;2023-07-31T08:21:08;7.50;;;3.65;;
81901;SDS011;71369;50.796;3.290;2023-07-31T08:23:34;10.88;;;3.25;;
81901;SDS011;71369;50.796;3.290;2023-07-31T08:25:59;8.77;;;4.03;;
81901;SDS011;71369;50.796;3.290;2023-07-31T08:28:25;5.20;;;3.25;;
81901;SDS011;71369;50.796;3.290;2023-07-31T08:30:51;6.80;;;3.78;;
81901;SDS011;71369;50.796;3.290;2023-07-31T08:33:16;7.40;;;3.47;;
81901;SDS011;71369;50.796;3.290;2023-07-31T08:35:42;7.28;;;3.65;;
81901;SDS011;71369;50.796;3.290;2023-07-31T08:38:08;7.40;;;3.35;;
81901;SDS011;71369;50.796;3.290;2023-07-31T08:40:36;4.93;;;3.28;;
81901;SDS011;71369;50.796;3.290;2023-07-31T08:43:05;6.25;;;3.75;;
81901;SDS011;71369;50.796;3.290;2023-07-31T08:45:32;9.02;;;3.88;;
81901;SDS011;71369;50.796;3.290;2023-07-31T08:47:59;9.95;;;3.67;;
81901;SDS011;71369;50.796;3.290;2023-07-31T08:50:25;8.60;;;3.55;;
81901;SDS011;71369;50.796;3.290;2023-07-31T08:52:51;6.40;;;3.90;;
81901;SDS011;71369;50.796;3.290;2023-07-31T08:55:17;8.07;;;3.83;;
81901;SDS011;71369;50.796;3.290;2023-07-31T09:00:15;6.75;;;3.92;;
81901;SDS011;71369;50.796;3.290;2023-07-31T09:02:44;6.72;;;3.70;;
81901;SDS011;71369;50.796;3.290;2023-07-31T09:05:13;9.60;;;5.00;;
81901;SDS011;71369;50.796;3.290;2023-07-31T09:07:41;8.40;;;4.15;;
81901;SDS011;71369;50.796;3.290;2023-07-31T09:10:11;10.90;;;4.53;;
81901;SDS011;71369;50.796;3.290;2023-07-31T09:12:37;7.45;;;3.67;;
81901;SDS011;71369;50.796;3.290;2023-07-31T09:15:04;8.05;;;4.18;;
81901;SDS011;71369;50.796;3.290;2023-07-31T09:17:30;6.47;;;3.67;;
81901;SDS011;71369;50.796;3.290;2023-07-31T09:19:58;9.43;;;4.45;;
81901;SDS011;71369;50.796;3.290;2023-07-31T09:22:42;7.28;;;4.30;;
81901;SDS011;71369;50.796;3.290;2023-07-31T09:25:18;7.93;;;4.63;;
81901;SDS011;71369;50.796;3.290;2023-07-31T09:28:02;5.72;;;3.42;;
81901;SDS011;71369;50.796;3.290;2023-07-31T09:30:29;6.88;;;3.97;;
81901;SDS011;71369;50.796;3.290;2023-07-31T09:33:02;6.47;;;3.85;;
81901;SDS011;71369;50.796;3.290;2023-07-31T09:35:33;8.45;;;3.95;;
81901;SDS011;71369;50.796;3.290;2023-07-31T09:38:00;6.60;;;3.50;;
81901;SDS011;71369;50.796;3.290;2023-07-31T09:43:04;8.20;;;3.70;;
81901;SDS011;71369;50.796;3.290;2023-07-31T09:45:34;6.05;;;3.47;;
81901;SDS011;71369;50.796;3.290;2023-07-31T09:48:07;5.30;;;3.72;;
81901;SDS011;71369;50.796;3.290;2023-07-31T09:50:46;10.95;;;3.80;;
81901;SDS011;71369;50.796;3.290;2023-07-31T09:53:14;10.18;;;3.70;;
81901;SDS011;71369;50.796;3.290;2023-07-31T09:55:42;7.65;;;3.80;;
81901;SDS011;71369;50.796;3.290;2023-07-31T09:58:09;7.45;;;3.95;;
81901;SDS011;71369;50.796;3.290;2023-07-31T10:00:36;10.35;;;4.28;;
81901;SDS011;71369;50.796;3.290;2023-07-31T10:03:06;6.45;;;3.72;;
81901;SDS011;71369;50.796;3.290;2023-07-31T10:08:11;9.95;;;4.03;;
81901;SDS011;71369;50.796;3.290;2023-07-31T10:10:41;8.30;;;4.15;;
81901;SDS011;71369;50.796;3.290;2023-07-31T10:13:09;7.18;;;3.65;;
81901;SDS011;71369;50.796;3.290;2023-07-31T10:15:36;7.57;;;3.60;;
81901;SDS011;71369;50.796;3.290;2023-07-31T10:18:02;5.72;;;3.47;;
81901;SDS011;71369;50.796;3.290;2023-07-31T10:20:30;7.10;;;4.15;;
81901;SDS011;71369;50.796;3.290;2023-07-31T10:22:57;6.53;;;3.72;;
81901;SDS011;71369;50.796;3.290;2023-07-31T10:25:24;5.82;;;3.60;;
81901;SDS011;71369;50.796;3.290;2023-07-31T10:27:52;5.80;;;3.72;;
81901;SDS011;71369;50.796;3.290;2023-07-31T10:30:20;6.35;;;3.30;;
81901;SDS011;71369;50.796;3.290;2023-07-31T10:32:50;23.60;;;14.57;;
81901;SDS011;71369;50.796;3.290;2023-07-31T10:35:25;6.38;;;3.78;;
81901;SDS011;71369;50.796;3.290;2023-07-31T10:37:53;7.97;;;3.65;;
81901;SDS011;71369;50.796;3.290;2023-07-31T10:40:24;8.10;;;3.53;;
81901;SDS011;71369;50.796;3.290;2023-07-31T10:42:57;8.32;;;4.10;;
81901;SDS011;71369;50.796;3.290;2023-07-31T10:48:04;6.47;;;3.40;;
81901;SDS011;71369;50.796;3.290;2023-07-31T10:50:55;6.10;;;3.85;;
81901;SDS011;71369;50.796;3.290;2023-07-31T10:53:30;8.75;;;3.90;;
81901;SDS011;71369;50.796;3.290;2023-07-31T10:56:01;7.95;;;3.88;;
81901;SDS011;71369;50.796;3.290;2023-07-31T10:58:32;7.10;;;4.10;;
81901;SDS011;71369;50.796;3.290;2023-07-31T11:01:02;7.97;;;4.00;;
81901;SDS011;71369;50.796;3.290;2023-07-31T11:03:48;10.60;;;4.40;;
81901;SDS011;71369;50.796;3.290;2023-07-31T11:06:17;7.15;;;4.20;;
81901;SDS011;71369;50.796;3.290;2023-07-31T11:08:43;9.20;;;4.28;;
81901;SDS011;71369;50.796;3.290;2023-07-31T11:11:14;6.75;;;4.07;;
81901;SDS011;71369;50.796;3.290;2023-07-31T11:13:45;5.60;;;3.85;;
81901;SDS011;71369;50.796;3.290;2023-07-31T11:16:15;7.72;;;4.05;;
81901;SDS011;71369;50.796;3.290;2023-07-31T11:18:45;6.70;;;4.13;;
81901;SDS011;71369;50.796;3.290;2023-07-31T11:21:17;10.18;;;4.50;;
81901;SDS011;71369;50.796;3.290;2023-07-31T11:23:47;8.07;;;4.50;;
81901;SDS011;71369;50.796;3.290;2023-07-31T11:26:17;7.28;;;4.55;;
81901;SDS011;71369;50.796;3.290;2023-07-31T11:28:46;8.88;;;4.18;;
81901;SDS011;71369;50.796;3.290;2023-07-31T11:31:14;10.90;;;4.82;;
81901;SDS011;71369;50.796;3.290;2023-07-31T11:33:40;8.82;;;4.45;;
81901;SDS011;71369;50.796;3.290;2023-07-31T11:36:05;9.23;;;4.50;;
81901;SDS011;71369;50.796;3.290;2023-07-31T11:38:32;6.88;;;4.40;;
81901;SDS011;71369;50.796;3.290;2023-07-31T11:40:59;7.75;;;4.07;;
81901;SDS011;71369;50.796;3.290;2023-07-31T11:43:28;8.25;;;4.32;;
81901;SDS011;71369;50.796;3.290;2023-07-31T11:45:54;7.63;;;4.30;;
81901;SDS011;71369;50.796;3.290;2023-07-31T11:48:28;6.55;;;4.10;;
81901;SDS011;71369;50.796;3.290;2023-07-31T11:51:05;9.73;;;4.00;;
81901;SDS011;71369;50.796;3.290;2023-07-31T11:53:38;8.93;;;3.50;;
81901;SDS011;71369;50.796;3.290;2023-07-31T11:56:19;8.77;;;4.65;;
81901;SDS011;71369;50.796;3.290;2023-07-31T11:58:46;8.35;;;4.40;;
81901;SDS011;71369;50.796;3.290;2023-07-31T12:01:14;8.00;;;4.10;;
81901;SDS011;71369;50.796;3.290;2023-07-31T12:03:42;10.82;;;5.43;;
81901;SDS011;71369;50.796;3.290;2023-07-31T12:06:09;5.30;;;3.38;;
81901;SDS011;71369;50.796;3.290;2023-07-31T12:08:36;9.10;;;4.32;;
81901;SDS011;71369;50.796;3.290;2023-07-31T12:11:05;7.30;;;4.45;;
81901;SDS011;71369;50.796;3.290;2023-07-31T12:13:33;9.60;;;4.28;;
81901;SDS011;71369;50.796;3.290;2023-07-31T12:15:59;8.45;;;4.20;;
81901;SDS011;71369;50.796;3.290;2023-07-31T12:18:29;7.18;;;3.65;;
81901;SDS011;71369;50.796;3.290;2023-07-31T12:20:58;7.20;;;3.85;;
81901;SDS011;71369;50.796;3.290;2023-07-31T12:23:26;9.23;;;4.10;;
81901;SDS011;71369;50.796;3.290;2023-07-31T12:26:02;7.28;;;3.85;;
81901;SDS011;71369;50.796;3.290;2023-07-31T12:28:34;11.73;;;4.70;;
81901;SDS011;71369;50.796;3.290;2023-07-31T12:31:02;11.43;;;4.35;;
81901;SDS011;71369;50.796;3.290;2023-07-31T12:33:32;8.73;;;4.00;;
81901;SDS011;71369;50.796;3.290;2023-07-31T12:36:00;6.38;;;3.38;;
81901;SDS011;71369;50.796;3.290;2023-07-31T12:38:26;7.82;;;3.42;;
81901;SDS011;71369;50.796;3.290;2023-07-31T12:40:52;10.18;;;4.20;;
81901;SDS011;71369;50.796;3.290;2023-07-31T12:43:19;6.35;;;4.05;;
81901;SDS011;71369;50.796;3.290;2023-07-31T12:45:45;7.30;;;3.38;;
81901;SDS011;71369;50.796;3.290;2023-07-31T12:48:12;5.82;;;3.15;;
81901;SDS011;71369;50.796;3.290;2023-07-31T12:50:38;7.68;;;3.20;;
81901;SDS011;71369;50.796;3.290;2023-07-31T12:53:04;5.47;;;2.92;;
81901;SDS011;71369;50.796;3.290;2023-07-31T12:55:30;5.63;;;2.67;;
81901;SDS011;71369;50.796;3.290;2023-07-31T12:58:01;6.00;;;3.47;;
81901;SDS011;71369;50.796;3.290;2023-07-31T13:00:27;6.97;;;3.22;;
81901;SDS011;71369;50.796;3.290;2023-07-31T13:02:53;7.22;;;3.35;;
81901;SDS011;71369;50.796;3.290;2023-07-31T13:05:20;6.75;;;3.83;;
81901;SDS011;71369;50.796;3.290;2023-07-31T13:07:46;6.43;;;3.53;;
81901;SDS011;71369;50.796;3.290;2023-07-31T13:10:12;7.35;;;3.35;;
81901;SDS011;71369;50.796;3.290;2023-07-31T13:12:38;6.95;;;3.55;;
81901;SDS011;71369;50.796;3.290;2023-07-31T13:15:04;5.57;;;3.50;;
81901;SDS011;71369;50.796;3.290;2023-07-31T13:17:31;7.43;;;3.78;;
81901;SDS011;71369;50.796;3.290;2023-07-31T13:19:57;8.35;;;3.80;;
81901;SDS011;71369;50.796;3.290;2023-07-31T13:22:22;6.13;;;3.45;;
81901;SDS011;71369;50.796;3.290;2023-07-31T13:24:49;9.93;;;4.35;;
81901;SDS011;71369;50.796;3.290;2023-07-31T13:27:14;6.88;;;4.20;;
81901;SDS011;71369;50.796;3.290;2023-07-31T13:29:45;8.90;;;4.22;;
81901;SDS011;71369;50.796;3.290;2023-07-31T13:32:11;10.20;;;4.15;;
81901;SDS011;71369;50.796;3.290;2023-07-31T13:34:37;9.35;;;3.95;;
81901;SDS011;71369;50.796;3.290;2023-07-31T13:37:03;9.10;;;4.65;;
81901;SDS011;71369;50.796;3.290;2023-07-31T13:39:34;7.35;;;3.03;;
81901;SDS011;71369;50.796;3.290;2023-07-31T13:42:00;5.93;;;3.20;;
81901;SDS011;71369;50.796;3.290;2023-07-31T13:44:26;6.57;;;2.78;;
81901;SDS011;71369;50.796;3.290;2023-07-31T13:46:52;9.57;;;3.22;;
81901;SDS011;71369;50.796;3.290;2023-07-31T13:49:17;6.43;;;2.88;;
81901;SDS011;71369;50.796;3.290;2023-07-31T13:51:43;3.83;;;2.30;;
81901;SDS011;71369;50.796;3.290;2023-07-31T13:54:10;3.65;;;2.10;;
81901;SDS011;71369;50.796;3.290;2023-07-31T13:56:36;3.42;;;1.92;;
81901;SDS011;71369;50.796;3.290;2023-07-31T13:59:03;3.88;;;1.90;;
81901;SDS011;71369;50.796;3.290;2023-07-31T14:01:29;4.85;;;2.03;;
81901;SDS011;71369;50.796;3.290;2023-07-31T14:03:56;3.35;;;1.90;;
81901;SDS011;71369;50.796;3.290;2023-07-31T14:06:21;3.47;;;1.83;;
81901;SDS011;71369;50.796;3.290;2023-07-31T14:08:47;2.85;;;1.60;;
81901;SDS011;71369;50.796;3.290;2023-07-31T14:11:13;4.05;;;1.80;;
81901;SDS011;71369;50.796;3.290;2023-07-31T14:13:39;3.22;;;2.00;;
81901;SDS011;71369;50.796;3.290;2023-07-31T14:16:05;3.85;;;2.08;;
81901;SDS011;71369;50.796;3.290;2023-07-31T14:18:31;3.10;;;1.80;;
81901;SDS011;71369;50.796;3.290;2023-07-31T14:20:58;2.92;;;1.90;;
81901;SDS011;71369;50.796;3.290;2023-07-31T14:23:23;3.58;;;1.85;;
81901;SDS011;71369;50.796;3.290;2023-07-31T14:25:52;2.72;;;1.70;;
81901;SDS011;71369;50.796;3.290;2023-07-31T14:28:17;4.10;;;1.70;;
81901;SDS011;71369;50.796;3.290;2023-07-31T14:30:43;4.32;;;1.95;;
81901;SDS011;71369;50.796;3.290;2023-07-31T14:33:09;3.75;;;2.00;;
81901;SDS011;71369;50.796;3.290;2023-07-31T14:35:36;3.97;;;1.65;;
81901;SDS011;71369;50.796;3.290;2023-07-31T14:38:01;1.85;;;1.55;;
81901;SDS011;71369;50.796;3.290;2023-07-31T14:40:27;4.75;;;1.60;;
81901;SDS011;71369;50.796;3.290;2023-07-31T14:42:54;2.75;;;1.70;;
81901;SDS011;71369;50.796;3.290;2023-07-31T14:45:20;4.80;;;1.95;;
81901;SDS011;71369;50.796;3.290;2023-07-31T14:47:48;3.65;;;2.15;;
81901;SDS011;71369;50.796;3.290;2023-07-31T14:52:45;2.78;;;2.13;;
81901;SDS011;71369;50.796;3.290;2023-07-31T14:55:36;3.53;;;1.83;;
81901;SDS011;71369;50.796;3.290;2023-07-31T14:58:03;3.03;;;1.77;;
81901;SDS011;71369;50.796;3.290;2023-07-31T15:00:29;2.10;;;1.67;;
81901;SDS011;71369;50.796;3.290;2023-07-31T15:02:55;2.67;;;1.67;;
81901;SDS011;71369;50.796;3.290;2023-07-31T15:05:20;3.13;;;1.75;;